createdAt,value
2022-11-17T00:00:49.899Z,99426.22
2022-11-17T00:03:19.615Z,99436.69
2022-11-17T00:05:49.283Z,99426.28
2022-11-17T00:08:19.031Z,99422.75
2022-11-17T00:10:51.344Z,99415.81
2022-11-17T00:13:33.796Z,99406.19
2022-11-17T00:16:03.756Z,99404.41
2022-11-17T00:18:45.845Z,99405.28
2022-11-17T00:21:24.015Z,99389.56
2022-11-17T00:23:53.795Z,99401.78
2022-11-17T00:26:27.686Z,99386.06
2022-11-17T00:28:58.482Z,99378.22
2022-11-17T00:31:42.234Z,99367.75
2022-11-17T00:34:16.300Z,99363.38
2022-11-17T00:36:48.088Z,99373.84
2022-11-17T00:39:19.110Z,99354.59
2022-11-17T00:41:51.414Z,99355.44
2022-11-17T00:44:21.171Z,99331.88
2022-11-17T00:46:51.356Z,99334.50
2022-11-17T00:49:25.194Z,99353.69
2022-11-17T00:51:56.492Z,99334.44
2022-11-17T00:54:26.661Z,99329.19
2022-11-17T00:56:59.108Z,99310.81
2022-11-17T00:59:28.815Z,99314.22
2022-11-17T01:01:58.616Z,99314.16
2022-11-17T01:04:28.337Z,99320.22
2022-11-17T01:06:58.049Z,99301.81
2022-11-17T01:09:27.883Z,99317.47
2022-11-17T01:12:00.195Z,99286.81
2022-11-17T01:14:32.794Z,99285.94
2022-11-17T01:17:02.499Z,99267.59
2022-11-17T01:19:32.227Z,99279.75
2022-11-17T01:22:01.931Z,99287.59
2022-11-17T01:24:31.853Z,99270.09
2022-11-17T01:27:04.323Z,99277.94
2022-11-17T01:29:34.169Z,99268.34
2022-11-17T01:32:04.044Z,99256.97
2022-11-17T01:34:33.969Z,99246.44
2022-11-17T01:37:16.093Z,99242.13
2022-11-17T01:39:45.831Z,99230.69
2022-11-17T01:42:19.659Z,99256.03
2022-11-17T01:44:59.104Z,99233.31
2022-11-17T01:47:41.682Z,99214.13
2022-11-17T01:50:20.718Z,99216.69
2022-11-17T01:52:53.371Z,99209.75
2022-11-17T01:55:25.721Z,99202.75
2022-11-17T01:58:02.866Z,99200.13
2022-11-17T02:00:33.195Z,99193.16
2022-11-17T02:03:07.428Z,99182.69
2022-11-17T02:05:46.151Z,99173.94
2022-11-17T02:08:17.841Z,99177.41
2022-11-17T02:10:51.665Z,99180.91
2022-11-17T02:13:25.339Z,99182.63
2022-11-17T02:15:55.020Z,99170.38
2022-11-17T02:18:25.072Z,99169.50
2022-11-17T02:21:11.651Z,99152.94
2022-11-17T02:24:13.236Z,99146.78
2022-11-17T02:27:04.553Z,99130.16
2022-11-17T02:29:44.826Z,99134.50
2022-11-17T02:32:20.160Z,99137.19
2022-11-17T02:34:53.627Z,99141.50
2022-11-17T02:37:30.415Z,99137.19
2022-11-17T02:40:04.252Z,99132.84
2022-11-17T02:42:51.939Z,99142.47
2022-11-17T02:45:28.642Z,99126.72
2022-11-17T02:48:00.933Z,99129.38
2022-11-17T02:50:32.666Z,99137.28
2022-11-17T02:53:02.479Z,99121.59
2022-11-17T02:55:34.416Z,99115.47
2022-11-17T02:58:04.142Z,99101.53
2022-11-17T03:00:44.654Z,99104.06
2022-11-17T03:03:32.208Z,99113.59
2022-11-17T03:06:11.941Z,99101.38
2022-11-17T03:08:50.758Z,99106.53
2022-11-17T03:11:26.182Z,99104.75
2022-11-17T03:14:04.397Z,99096.81
2022-11-17T03:16:40.688Z,99082.81
2022-11-17T03:19:19.052Z,99087.13
2022-11-17T03:21:53.129Z,99079.28
2022-11-17T03:24:26.348Z,99079.28
2022-11-17T03:27:00.085Z,99071.38
2022-11-17T03:29:33.572Z,99071.38
2022-11-17T03:32:09.292Z,99058.31
2022-11-17T03:34:44.748Z,99052.22
2022-11-17T03:37:18.062Z,99046.09
2022-11-17T03:39:53.053Z,99056.56
2022-11-17T03:42:27.322Z,99044.31
2022-11-17T03:45:01.860Z,99042.53
2022-11-17T03:47:36.570Z,99062.50
2022-11-17T03:50:13.750Z,99016.25
2022-11-17T03:52:45.212Z,99043.22
2022-11-17T03:55:16.110Z,99051.84
2022-11-17T03:57:54.239Z,99024.81
2022-11-17T04:00:24.249Z,99026.47
2022-11-17T04:02:59.547Z,99022.91
2022-11-17T04:05:30.179Z,99031.56
2022-11-17T04:07:59.873Z,99031.56
2022-11-17T04:10:29.822Z,99022.81
2022-11-17T04:13:11.948Z,99010.56
2022-11-17T04:15:54.338Z,99018.31
2022-11-17T04:18:27.237Z,99007.78
2022-11-17T04:20:59.315Z,98999.88
2022-11-17T04:23:29.139Z,98983.28
2022-11-17T04:26:12.637Z,99000.66
2022-11-17T04:28:44.580Z,98985.84
2022-11-17T04:31:16.577Z,98978.88
2022-11-17T04:33:50.751Z,98972.78
2022-11-17T04:36:22.850Z,98970.13
2022-11-17T04:38:54.639Z,98959.66
2022-11-17T04:41:38.577Z,98977.06
2022-11-17T04:44:10.388Z,98963.94
2022-11-17T04:46:41.617Z,98958.72
2022-11-17T04:49:14.672Z,98956.97
2022-11-17T04:51:45.049Z,98943.03
2022-11-17T04:54:16.674Z,98943.91
2022-11-17T04:56:46.648Z,98950.91
2022-11-17T04:59:16.754Z,98944.72
2022-11-17T05:01:47.776Z,98932.50
2022-11-17T05:04:42.222Z,98957.69
2022-11-17T05:07:14.579Z,98947.16
2022-11-17T05:09:44.334Z,98928.88
2022-11-17T05:12:26.545Z,98935.78
2022-11-17T05:14:56.499Z,98946.19
2022-11-17T05:17:23.602Z,98942.59
2022-11-17T05:19:55.940Z,98949.56
2022-11-17T05:22:38.904Z,98960.88
2022-11-17T05:25:09.772Z,98942.66
2022-11-17T05:27:40.047Z,98945.25
2022-11-17T05:30:11.685Z,98917.38
2022-11-17T05:32:41.460Z,98920.81
2022-11-17T05:35:15.344Z,98906.00
2022-11-17T05:37:45.057Z,98931.25
2022-11-17T05:40:15.320Z,98912.06
2022-11-17T05:42:45.049Z,98928.59
2022-11-17T05:45:14.782Z,98891.97
2022-11-17T05:47:44.499Z,98908.47
2022-11-17T05:50:19.478Z,98900.63
2022-11-17T05:52:49.288Z,98887.56
2022-11-17T05:55:19.202Z,98891.91
2022-11-17T05:57:49.687Z,98892.66
2022-11-17T06:00:20.502Z,98880.47
2022-11-17T06:02:54.840Z,98897.81
2022-11-17T06:05:27.608Z,98908.22
2022-11-17T06:07:59.079Z,98893.41
2022-11-17T06:10:29.852Z,98876.84
2022-11-17T06:12:59.673Z,98884.72
2022-11-17T06:15:29.747Z,98879.47
2022-11-17T06:18:02.877Z,98875.16
2022-11-17T06:20:37.994Z,98866.44
2022-11-17T06:23:10.724Z,98857.75
2022-11-17T06:25:42.050Z,98866.50
2022-11-17T06:28:14.146Z,98871.72
2022-11-17T06:30:45.472Z,98863.03
2022-11-17T06:33:19.520Z,98863.88
2022-11-17T06:35:53.016Z,98859.53
2022-11-17T06:38:23.019Z,98857.81
2022-11-17T06:40:53.071Z,98869.09
2022-11-17T06:43:22.819Z,98871.72
2022-11-17T06:45:52.742Z,98886.50
2022-11-17T06:48:27.359Z,98875.19
2022-11-17T06:50:59.836Z,98870.84
2022-11-17T06:53:29.657Z,98856.06
2022-11-17T06:56:04.996Z,98861.34
2022-11-17T06:58:35.815Z,98881.38
2022-11-17T07:01:08.249Z,98879.66
2022-11-17T07:03:39.611Z,98870.09
2022-11-17T07:06:13.460Z,98865.72
2022-11-17T07:08:43.371Z,98864.03
2022-11-17T07:11:15.124Z,98856.19
2022-11-17T07:13:45.267Z,98866.63
2022-11-17T07:16:22.933Z,98860.50
2022-11-17T07:18:55.244Z,98861.38
2022-11-17T07:21:27.994Z,98852.66
2022-11-17T07:23:57.803Z,98866.56
2022-11-17T07:26:27.665Z,98892.66
2022-11-17T07:28:57.414Z,98845.72
2022-11-17T07:31:27.177Z,98845.66
2022-11-17T07:33:57.179Z,98842.22
2022-11-17T07:36:29.592Z,98858.75
2022-11-17T07:38:59.363Z,98872.69
2022-11-17T07:41:29.548Z,98871.78
2022-11-17T07:43:59.345Z,98854.38
2022-11-17T07:46:29.196Z,98862.19
2022-11-17T07:48:59.235Z,98857.84
2022-11-17T07:51:31.632Z,98853.44
2022-11-17T07:54:01.374Z,98860.41
2022-11-17T07:56:31.083Z,98839.56
2022-11-17T07:59:00.863Z,98855.19
2022-11-17T08:01:30.692Z,98838.69
2022-11-17T08:04:00.659Z,98856.13
2022-11-17T08:06:33.224Z,98858.75
2022-11-17T08:09:03.047Z,98847.44
2022-11-17T08:11:34.191Z,98848.38
2022-11-17T08:14:04.068Z,98846.56
2022-11-17T08:16:33.995Z,98850.06
2022-11-17T08:19:04.547Z,98847.47
2022-11-17T08:21:41.186Z,98855.28
2022-11-17T08:24:11.494Z,98849.19
2022-11-17T08:26:41.243Z,98855.28
2022-11-17T08:29:11.017Z,98883.13
2022-11-17T08:31:45.937Z,98850.06
2022-11-17T08:34:15.703Z,98847.47
2022-11-17T08:36:48.609Z,98861.34
2022-11-17T08:39:18.307Z,98845.66
2022-11-17T08:41:48.127Z,98858.72
2022-11-17T08:44:17.912Z,98843.97
2022-11-17T08:46:49.108Z,98842.22
2022-11-17T08:49:18.953Z,98846.56
2022-11-17T08:51:51.691Z,98836.19
2022-11-17T08:54:21.531Z,98831.78
2022-11-17T08:56:51.307Z,98838.81
2022-11-17T08:59:21.048Z,98848.41
2022-11-17T09:01:50.794Z,98825.81
2022-11-17T09:04:21.303Z,98833.66
2022-11-17T09:06:53.675Z,98839.75
2022-11-17T09:09:23.793Z,98839.75
2022-11-17T09:11:54.273Z,98836.22
2022-11-17T09:14:23.962Z,98851.91
2022-11-17T09:16:53.786Z,98827.53
2022-11-17T09:19:23.536Z,98864.09
2022-11-17T09:21:56.121Z,98864.06
2022-11-17T09:24:26.835Z,98845.81
2022-11-17T09:26:57.591Z,98849.25
2022-11-17T09:29:27.622Z,98834.50
2022-11-17T09:31:57.752Z,98857.13
2022-11-17T09:34:27.633Z,98857.97
2022-11-17T09:37:00.053Z,98858.00
2022-11-17T09:39:29.998Z,98853.63
2022-11-17T09:42:00.289Z,98858.81
2022-11-17T09:44:40.444Z,98857.13
2022-11-17T09:47:22.184Z,98865.00
2022-11-17T09:49:59.295Z,98860.66
2022-11-17T09:52:37.682Z,98876.31
2022-11-17T09:55:20.695Z,98863.25
2022-11-17T09:57:54.290Z,98877.19
2022-11-17T10:00:25.695Z,98862.44
2022-11-17T10:02:57.383Z,98858.13
2022-11-17T10:05:31.856Z,98854.59
2022-11-17T10:08:09.131Z,98857.25
2022-11-17T10:10:42.889Z,98862.44
2022-11-17T10:13:20.444Z,98853.78
2022-11-17T10:15:52.678Z,98855.44
2022-11-17T10:18:22.499Z,98858.91
2022-11-17T10:20:52.317Z,98863.25
2022-11-17T10:23:25.482Z,98881.53
2022-11-17T10:26:00.823Z,98856.28
2022-11-17T10:28:32.761Z,98865.88
2022-11-17T10:31:05.090Z,98871.03
2022-11-17T10:33:41.186Z,98887.63
2022-11-17T10:36:20.757Z,98883.28
2022-11-17T10:38:55.084Z,98877.19
2022-11-17T10:41:28.454Z,98863.25
2022-11-17T10:44:03.951Z,98879.88
2022-11-17T10:46:46.126Z,98872.97
2022-11-17T10:49:28.479Z,98883.50
2022-11-17T10:52:09.124Z,98877.41
2022-11-17T10:54:42.214Z,98878.28
2022-11-17T10:57:19.526Z,98875.72
2022-11-17T10:59:56.705Z,98865.28
2022-11-17T11:02:32.772Z,98863.56
2022-11-17T11:05:10.527Z,98869.66
2022-11-17T11:07:40.780Z,98859.22
2022-11-17T11:10:19.763Z,98881.91
2022-11-17T11:12:56.600Z,98868.78
2022-11-17T11:15:27.934Z,98879.28
2022-11-17T11:17:57.650Z,98870.53
2022-11-17T11:20:36.310Z,98882.69
2022-11-17T11:23:11.995Z,98880.94
2022-11-17T11:25:50.327Z,98891.34
2022-11-17T11:28:42.559Z,98893.94
2022-11-17T11:31:24.799Z,98888.72
2022-11-17T11:34:03.889Z,98878.22
2022-11-17T11:36:44.361Z,98889.59
2022-11-17T11:39:29.029Z,98883.47
2022-11-17T11:42:25.964Z,98893.94
2022-11-17T11:45:10.081Z,98892.22
2022-11-17T11:47:59.614Z,98899.22
2022-11-17T11:50:35.428Z,98897.53
2022-11-17T11:53:18.680Z,98898.44
2022-11-17T11:55:53.598Z,98876.75
2022-11-17T11:58:27.674Z,98901.19
2022-11-17T12:01:09.949Z,98909.06
2022-11-17T12:03:48.269Z,98897.84
2022-11-17T12:06:42.987Z,98902.25
2022-11-17T12:09:27.199Z,98899.69
2022-11-17T12:12:04.025Z,98905.84
2022-11-17T12:14:38.692Z,98891.91
2022-11-17T12:17:18.819Z,98902.41
2022-11-17T12:19:55.709Z,98898.97
2022-11-17T12:22:57.562Z,98899.84
2022-11-17T12:25:31.458Z,98904.19
2022-11-17T12:28:01.230Z,98902.41
2022-11-17T12:30:58.582Z,98909.44
2022-11-17T12:34:23.712Z,98904.13
2022-11-17T12:37:09.916Z,98915.44
2022-11-17T12:39:56.153Z,98912.88
2022-11-17T12:42:32.952Z,98912.88
2022-11-17T12:45:04.505Z,98918.09
2022-11-17T12:47:38.674Z,98911.16
2022-11-17T12:53:59.882Z,98919.94
2022-11-17T13:00:14.959Z,98922.53
2022-11-17T13:03:00.907Z,98930.44
2022-11-17T13:05:33.938Z,98927.78
2022-11-17T13:08:23.152Z,98923.50
2022-11-17T13:10:54.105Z,98933.94
2022-11-17T13:13:25.783Z,98933.97
2022-11-17T13:15:58.822Z,98921.78
2022-11-17T13:18:36.948Z,98933.16
2022-11-17T13:21:10.336Z,98925.38
2022-11-17T13:23:47.048Z,98934.09
2022-11-17T13:26:25.300Z,98937.66
2022-11-17T13:29:08.283Z,98929.88
2022-11-17T13:31:38.477Z,98929.91
2022-11-17T13:34:19.107Z,98936.91
2022-11-17T13:36:55.774Z,98937.00
2022-11-17T13:39:27.943Z,98936.19
2022-11-17T13:41:59.395Z,98929.25
2022-11-17T13:44:36.734Z,98937.16
2022-11-17T13:47:40.582Z,98935.50
2022-11-17T13:50:41.729Z,98928.47
2022-11-17T13:53:29.417Z,98927.59
2022-11-17T13:55:59.270Z,98935.44
2022-11-17T13:58:41.152Z,98939.78
2022-11-17T14:01:15.178Z,98944.16
2022-11-17T14:03:46.746Z,98946.81
2022-11-17T14:06:19.418Z,98950.34
2022-11-17T14:09:09.198Z,98956.50
2022-11-17T14:11:44.232Z,98952.09
2022-11-17T14:14:17.216Z,98950.34
2022-11-17T14:16:48.219Z,98960.81
2022-11-17T14:19:29.679Z,98954.72
2022-11-17T14:22:31.252Z,98965.16
2022-11-17T14:25:01.675Z,98965.09
2022-11-17T14:27:43.442Z,98958.94
2022-11-17T14:30:17.141Z,98955.41
2022-11-17T14:32:46.899Z,98962.34
2022-11-17T14:37:50.382Z,98967.56
2022-11-17T14:40:21.497Z,98969.31
2022-11-17T14:42:51.282Z,98971.03
2022-11-17T14:45:21.101Z,98974.47
2022-11-17T14:47:51.692Z,98983.22
2022-11-17T14:50:22.083Z,98972.72
2022-11-17T14:52:54.580Z,98979.66
2022-11-17T14:55:24.607Z,98983.13
2022-11-17T14:57:55.966Z,98983.19
2022-11-17T15:00:26.108Z,98987.63
2022-11-17T15:02:55.985Z,98982.44
2022-11-17T15:05:25.876Z,98987.63
2022-11-17T15:07:58.914Z,98989.31
2022-11-17T15:10:28.939Z,98996.28
2022-11-17T15:12:58.844Z,98994.56
2022-11-17T15:15:28.672Z,99002.41
2022-11-17T15:18:00.134Z,99005.00
2022-11-17T15:20:33.243Z,99012.03
2022-11-17T15:23:06.842Z,99002.44
2022-11-17T15:25:36.655Z,99005.06
2022-11-17T15:28:07.178Z,99004.19
2022-11-17T15:30:36.986Z,99007.72
2022-11-17T15:33:07.022Z,99020.78
2022-11-17T15:35:36.836Z,99015.56
2022-11-17T15:38:09.622Z,99012.91
2022-11-17T15:40:39.490Z,99010.31
2022-11-17T15:43:09.313Z,99019.88
2022-11-17T15:45:39.859Z,99023.34
2022-11-17T15:48:12.614Z,99039.00
2022-11-17T15:50:45.986Z,99032.91
2022-11-17T15:53:18.886Z,99031.16
2022-11-17T15:55:51.108Z,99050.28
2022-11-17T15:58:20.916Z,99052.06
2022-11-17T16:00:54.944Z,99053.81
2022-11-17T16:03:24.736Z,99054.75
2022-11-17T16:05:54.519Z,99058.22
2022-11-17T16:08:27.461Z,99060.00
2022-11-17T16:11:00.470Z,99067.88
2022-11-17T16:13:30.377Z,99061.72
2022-11-17T16:16:00.526Z,99066.94
2022-11-17T16:18:30.449Z,99065.19
2022-11-17T16:21:05.874Z,99078.31
2022-11-17T16:23:43.499Z,99071.34
2022-11-17T16:26:14.590Z,99068.72
2022-11-17T16:28:59.313Z,99071.34
2022-11-17T16:31:33.813Z,99072.25
2022-11-17T16:34:05.509Z,99066.13
2022-11-17T16:36:37.526Z,99082.72
2022-11-17T16:39:12.213Z,99078.31
2022-11-17T16:41:45.483Z,99091.41
2022-11-17T16:44:17.242Z,99089.66
2022-11-17T16:46:49.843Z,99088.00
2022-11-17T16:49:22.455Z,99094.19
2022-11-17T16:51:56.836Z,99095.13
2022-11-17T16:54:29.458Z,99099.47
2022-11-17T16:57:00.906Z,99098.59
2022-11-17T16:59:30.835Z,99091.66
2022-11-17T17:02:03.335Z,99106.44
2022-11-17T17:04:33.391Z,99098.59
2022-11-17T17:07:05.073Z,99110.84
2022-11-17T17:09:38.038Z,99111.75
2022-11-17T17:12:09.621Z,99115.22
2022-11-17T17:14:41.941Z,99116.91
2022-11-17T17:17:15.811Z,99121.31
2022-11-17T17:19:45.670Z,99127.41
2022-11-17T17:22:18.522Z,99110.03
2022-11-17T17:24:51.115Z,99114.38
2022-11-17T17:27:24.441Z,99123.13
2022-11-17T17:29:57.057Z,99120.47
2022-11-17T17:32:27.099Z,99124.84
2022-11-17T17:38:23.401Z,99134.44
2022-11-17T17:40:56.199Z,99126.59
2022-11-17T17:43:26.466Z,99146.66
2022-11-17T17:49:27.102Z,99167.66
2022-11-17T17:51:56.789Z,99164.19
2022-11-17T17:54:26.734Z,99159.81
2022-11-17T17:56:59.989Z,99167.66
2022-11-17T17:59:29.676Z,99162.44
2022-11-17T18:01:59.409Z,99183.41
2022-11-17T18:04:29.637Z,99188.69
2022-11-17T18:07:00.359Z,99196.63
2022-11-17T18:09:30.303Z,99198.47
2022-11-17T18:12:02.666Z,99201.19
2022-11-17T18:14:32.371Z,99204.72
2022-11-17T18:17:02.065Z,99209.19
2022-11-17T18:19:33.420Z,99210.97
2022-11-17T18:22:03.405Z,99220.41
2022-11-17T18:24:33.277Z,99214.31
2022-11-17T18:27:05.603Z,99213.41
2022-11-17T18:29:35.335Z,99215.16
2022-11-17T18:32:05.057Z,99217.81
2022-11-17T18:34:34.787Z,99213.41
2022-11-17T18:37:04.495Z,99214.31
2022-11-17T18:39:34.215Z,99209.91
2022-11-17T18:42:06.907Z,99216.84
2022-11-17T18:44:36.615Z,99223.81
2022-11-17T18:47:06.287Z,99218.59
2022-11-17T18:49:36.030Z,99219.47
2022-11-17T18:52:06.116Z,99221.19
2022-11-17T18:54:36.056Z,99221.16
2022-11-17T18:57:08.391Z,99220.22
2022-11-17T18:59:38.199Z,99222.84
2022-11-17T19:02:08.010Z,99225.41
2022-11-17T19:04:37.780Z,99230.59
2022-11-17T19:07:07.623Z,99238.44
2022-11-17T19:09:37.546Z,99230.53
2022-11-17T19:12:11.092Z,99227.00
2022-11-17T19:14:40.859Z,99240.03
2022-11-17T19:17:10.750Z,99236.50
2022-11-17T19:19:40.475Z,99251.31
2022-11-17T19:22:10.286Z,99242.50
2022-11-17T19:24:40.922Z,99252.97
2022-11-17T19:27:13.374Z,99255.63
2022-11-17T19:29:43.242Z,99266.91
2022-11-17T19:32:13.248Z,99270.47
2022-11-17T19:34:44.206Z,99273.06
2022-11-17T19:37:14.100Z,99279.19
2022-11-17T19:39:43.842Z,99275.69
2022-11-17T19:42:16.198Z,99277.38
2022-11-17T19:44:45.991Z,99272.16
2022-11-17T19:47:15.800Z,99280.81
2022-11-17T19:49:45.579Z,99278.09
2022-11-17T19:52:15.318Z,99286.81
2022-11-17T19:54:45.063Z,99295.53
2022-11-17T19:57:17.426Z,99297.28
2022-11-17T19:59:47.144Z,99289.38
2022-11-17T20:02:16.888Z,99305.06
2022-11-17T20:04:46.614Z,99302.50
2022-11-17T20:07:16.414Z,99301.66
2022-11-17T20:09:46.158Z,99305.06
2022-11-17T20:12:18.522Z,99307.69
2022-11-17T20:14:48.371Z,99318.97
2022-11-17T20:17:18.070Z,99314.59
2022-11-17T20:19:47.827Z,99330.34
2022-11-17T20:22:17.637Z,99327.78
2022-11-17T20:24:49.534Z,99330.34
2022-11-17T20:27:24.278Z,99339.13
2022-11-17T20:29:53.967Z,99343.50
2022-11-17T20:32:23.774Z,99345.28
2022-11-17T20:34:53.577Z,99354.06
2022-11-17T20:37:28.043Z,99362.78
2022-11-17T20:39:58.007Z,99360.16
2022-11-17T20:42:30.421Z,99361.97
2022-11-17T20:45:00.130Z,99371.59
2022-11-17T20:47:30.051Z,99372.47
2022-11-17T20:49:59.747Z,99380.31
2022-11-17T20:52:29.431Z,99379.41
2022-11-17T20:55:01.509Z,99388.94
2022-11-17T20:57:33.862Z,99385.44
2022-11-17T21:00:05.412Z,99392.44
2022-11-17T21:02:35.086Z,99393.41
2022-11-17T21:05:04.823Z,99402.13
2022-11-17T21:07:34.752Z,99407.25
2022-11-17T21:10:04.502Z,99407.25
2022-11-17T21:12:36.804Z,99414.28
2022-11-17T21:15:07.434Z,99416.94
2022-11-17T21:17:49.549Z,99409.09
2022-11-17T21:20:19.610Z,99416.09
2022-11-17T21:22:49.309Z,99417.84
2022-11-17T21:25:19.208Z,99421.34
2022-11-17T21:27:51.531Z,99437.06
2022-11-17T21:30:21.644Z,99438.75
2022-11-17T21:32:51.346Z,99441.38
2022-11-17T21:35:21.075Z,99444.81
2022-11-17T21:37:50.795Z,99438.75
2022-11-17T21:40:21.305Z,99437.88
2022-11-17T21:42:53.702Z,99445.72
2022-11-17T21:45:23.588Z,99442.25
2022-11-17T21:47:59.079Z,99455.28
2022-11-17T21:50:29.416Z,99454.38
2022-11-17T21:52:59.152Z,99452.66
2022-11-17T21:55:28.871Z,99444.84
2022-11-17T21:58:01.180Z,99448.28
2022-11-17T22:00:31.056Z,99456.13
2022-11-17T22:03:00.776Z,99463.94
2022-11-17T22:05:30.528Z,99460.38
2022-11-17T22:08:00.262Z,99463.81
2022-11-17T22:10:29.983Z,99477.75
2022-11-17T22:13:02.294Z,99483.91
2022-11-17T22:15:32.006Z,99482.97
2022-11-17T22:18:01.733Z,99478.63
2022-11-17T22:20:31.545Z,99483.78
2022-11-17T22:23:01.271Z,99491.63
2022-11-17T22:25:44.621Z,99499.44
2022-11-17T22:28:17.789Z,99497.69
2022-11-17T22:30:47.523Z,99499.38
2022-11-17T22:33:17.246Z,99502.84
2022-11-17T22:35:47.056Z,99511.50
2022-11-17T22:38:18.174Z,99507.19
2022-11-17T22:40:49.179Z,99505.44
2022-11-17T22:43:21.538Z,99509.03
2022-11-17T22:45:51.251Z,99508.13
2022-11-17T22:48:21.047Z,99522.09
2022-11-17T22:50:50.800Z,99521.16
2022-11-17T22:53:20.504Z,99527.19
2022-11-17T22:55:50.222Z,99533.34
2022-11-17T22:58:22.857Z,99532.44
2022-11-17T23:00:53.171Z,99535.03
2022-11-17T23:03:22.932Z,99535.91
2022-11-17T23:05:52.744Z,99540.25
2022-11-17T23:08:22.462Z,99543.75
2022-11-17T23:11:09.075Z,99549.03
2022-11-17T23:13:44.538Z,99549.88
2022-11-17T23:16:14.273Z,99547.25
2022-11-17T23:18:44.279Z,99553.47
2022-11-17T23:21:14.116Z,99560.38
2022-11-17T23:23:44.002Z,99555.16
2022-11-17T23:26:15.134Z,99557.69
2022-11-17T23:28:47.503Z,99561.19
2022-11-17T23:31:19.481Z,99562.91
2022-11-17T23:33:50.690Z,99567.34
2022-11-17T23:36:22.027Z,99569.03
2022-11-17T23:38:52.708Z,99565.53
2022-11-17T23:41:24.009Z,99574.28
2022-11-17T23:43:57.390Z,99581.25
2022-11-17T23:46:28.273Z,99577.75
2022-11-17T23:48:58.902Z,99588.13
2022-11-17T23:51:30.139Z,99594.25
2022-11-17T23:54:01.611Z,99597.66
2022-11-17T23:56:34.787Z,99593.38
2022-11-17T23:59:08.227Z,99602.03
